Suehiro Maru No.8 — JK5423 — position and weather

sailwx.info

Track history (hours):
 
Tides and Currents Weather Stations Pressure Air Temp Water Temp Dewpoint Dewpoint Depression Visibility Wind Speed Wind Dir Waves Ship Positions

Suehiro Maru No.8

Last reported at 2017-Jun-22 17:06 UTC. Time now 2017-Jun-22 18:36 UTC.
Position N 34°00' E 135°03'.

Length 88 m; draft 5.2 m.

Type: Cargo ship. MMSI: 431400446.

Date/timePositionNaut miles runAvg speedWind from/ knotsBaromVisibWave heightAir tempDewpointWater temp
2017-Jun-22 17:06N 34°00' E 135°03'213.6
2017-Jun-22 16:56N 34°03' E 135°03'613.2
2017-Jun-22 16:30N 34°08' E 135°04'612.8
2017-Jun-22 16:01N 34°14' E 135°05'1 2.8
2017-Jun-22 15:30N 34°15' E 135°07'0 0.0
2017-Jun-22 15:00N 34°15' E 135°07'0 0.0
2017-Jun-22 14:00N 34°15' E 135°07'0 0.0
2017-Jun-22 13:30N 34°15' E 135°07'0 0.0
2017-Jun-22 13:00N 34°15' E 135°07'0 0.0
2017-Jun-22 12:30N 34°15' E 135°07'0 0.0
2017-Jun-22 12:00N 34°15' E 135°07'0 0.0
2017-Jun-22 11:30N 34°15' E 135°07'0 0.0
2017-Jun-22 11:01N 34°15' E 135°07'0 0.0
2017-Jun-22 10:30N 34°15' E 135°07'0 0.0
2017-Jun-22 10:00N 34°15' E 135°07'0 0.0
2017-Jun-22 09:30N 34°15' E 135°07'0 0.0
2017-Jun-22 09:00N 34°15' E 135°07'0 0.0
2017-Jun-22 08:30N 34°15' E 135°07'0 0.0
2017-Jun-22 08:00N 34°15' E 135°07'1 1.7
2017-Jun-22 07:30N 34°14' E 135°06'8 8.3
2017-Jun-22 06:32N 34°22' E 135°04'113.0
2017-Jun-22 06:29N 34°23' E 135°04'613.2
2017-Jun-22 06:00N 34°29' E 135°04'613.0
2017-Jun-22 05:31N 34°36' E 135°03'714.2
2017-Jun-22 05:01N 34°37' E 134°54'814.8
2017-Jun-22 04:29N 34°40' E 134°46'  
2017-Jun-17 14:22N 34°05' E 134°48'  
2017-Jun-15 06:33N 35°12' E 139°45'112.2
2017-Jun-15 06:29N 35°13' E 139°46'612.0
2017-Jun-15 06:00N 35°18' E 139°44'611.4
2017-Jun-15 05:30N 35°24' E 139°43'612.3
2017-Jun-15 05:00N 35°28' E 139°48'612.5
2017-Jun-15 04:30N 35°34' E 139°51'4 7.5
2017-Jun-15 04:00N 35°37' E 139°48'0 0.1
2017-Jun-15 03:30N 35°37' E 139°49'0 0.0
2017-Jun-15 03:01N 35°37' E 139°49'0 0.0
2017-Jun-15 02:30N 35°37' E 139°49'0 0.0
2017-Jun-15 02:00N 35°37' E 139°49'0 0.0
2017-Jun-15 01:30N 35°37' E 139°49'0 0.0
2017-Jun-15 01:01N 35°37' E 139°49'0 0.0
2017-Jun-15 00:30N 35°37' E 139°49'0 0.0
2017-Jun-15 00:00N 35°37' E 139°49'0 0.0
2017-Jun-14 23:30N 35°37' E 139°49'0 0.0
2017-Jun-14 23:00N 35°37' E 139°49'0 0.0
2017-Jun-14 22:30N 35°37' E 139°49'0 0.1
2017-Jun-14 22:00N 35°37' E 139°48'4 7.9
2017-Jun-14 21:30N 35°34' E 139°51'612.6
2017-Jun-14 21:01N 35°28' E 139°50'713.2
2017-Jun-14 20:30N 35°22' E 139°46'611.4
2017-Jun-14 20:00N 35°17' E 139°46'612.4
2017-Jun-14 19:30N 35°10' E 139°46'713.0
2017-Jun-14 18:59N 35°05' E 139°41'239 5.3
2017-Jun-12 22:06N 34°00' E 135°02'212.6
2017-Jun-12 21:58N 34°02' E 135°03'612.7
2017-Jun-12 21:30N 34°08' E 135°04'612.5
2017-Jun-12 21:00N 34°14' E 135°05'2 3.6
2017-Jun-12 20:31N 34°15' E 135°07'0 0.0
2017-Jun-12 20:00N 34°15' E 135°07'0 0.0
2017-Jun-12 19:31N 34°15' E 135°07'0 0.0
2017-Jun-12 19:00N 34°15' E 135°07'0 0.0
2017-Jun-12 18:31N 34°15' E 135°07'0 0.0
2017-Jun-12 18:01N 34°15' E 135°07'0 0.0
2017-Jun-12 17:31N 34°15' E 135°07'  
Track history (hours):
 
Tides and Currents Weather Stations Pressure Air Temp Water Temp Dewpoint Dewpoint Depression Visibility Wind Speed Wind Dir Waves Ship Positions

Suehiro Maru No.8

Last reported at 2017-Jun-22 17:06 UTC. Time now 2017-Jun-22 18:36 UTC.
Position N 34°00' E 135°03'.

Length 88 m; draft 5.2 m.

Type: Cargo ship. MMSI: 431400446.

Date/timePositionNaut miles runAvg speedWind from/ knotsBaromVisibWave heightAir tempDewpointWater temp
2017-Jun-22 17:06N 34°00' E 135°03'213.6
2017-Jun-22 16:56N 34°03' E 135°03'613.2
2017-Jun-22 16:30N 34°08' E 135°04'612.8
2017-Jun-22 16:01N 34°14' E 135°05'1 2.8
2017-Jun-22 15:30N 34°15' E 135°07'0 0.0
2017-Jun-22 15:00N 34°15' E 135°07'0 0.0
2017-Jun-22 14:00N 34°15' E 135°07'0 0.0
2017-Jun-22 13:30N 34°15' E 135°07'0 0.0
2017-Jun-22 13:00N 34°15' E 135°07'0 0.0
2017-Jun-22 12:30N 34°15' E 135°07'0 0.0
2017-Jun-22 12:00N 34°15' E 135°07'0 0.0
2017-Jun-22 11:30N 34°15' E 135°07'0 0.0
2017-Jun-22 11:01N 34°15' E 135°07'0 0.0
2017-Jun-22 10:30N 34°15' E 135°07'0 0.0
2017-Jun-22 10:00N 34°15' E 135°07'0 0.0
2017-Jun-22 09:30N 34°15' E 135°07'0 0.0
2017-Jun-22 09:00N 34°15' E 135°07'0 0.0
2017-Jun-22 08:30N 34°15' E 135°07'0 0.0
2017-Jun-22 08:00N 34°15' E 135°07'1 1.7
2017-Jun-22 07:30N 34°14' E 135°06'8 8.3
2017-Jun-22 06:32N 34°22' E 135°04'113.0
2017-Jun-22 06:29N 34°23' E 135°04'613.2
2017-Jun-22 06:00N 34°29' E 135°04'613.0
2017-Jun-22 05:31N 34°36' E 135°03'714.2
2017-Jun-22 05:01N 34°37' E 134°54'814.8
2017-Jun-22 04:29N 34°40' E 134°46'  
2017-Jun-17 14:22N 34°05' E 134°48'  
2017-Jun-15 06:33N 35°12' E 139°45'112.2
2017-Jun-15 06:29N 35°13' E 139°46'612.0
2017-Jun-15 06:00N 35°18' E 139°44'611.4
2017-Jun-15 05:30N 35°24' E 139°43'612.3
2017-Jun-15 05:00N 35°28' E 139°48'612.5
2017-Jun-15 04:30N 35°34' E 139°51'4 7.5
2017-Jun-15 04:00N 35°37' E 139°48'0 0.1
2017-Jun-15 03:30N 35°37' E 139°49'0 0.0
2017-Jun-15 03:01N 35°37' E 139°49'0 0.0
2017-Jun-15 02:30N 35°37' E 139°49'0 0.0
2017-Jun-15 02:00N 35°37' E 139°49'0 0.0
2017-Jun-15 01:30N 35°37' E 139°49'0 0.0
2017-Jun-15 01:01N 35°37' E 139°49'0 0.0
2017-Jun-15 00:30N 35°37' E 139°49'0 0.0
2017-Jun-15 00:00N 35°37' E 139°49'0 0.0
2017-Jun-14 23:30N 35°37' E 139°49'0 0.0
2017-Jun-14 23:00N 35°37' E 139°49'0 0.0
2017-Jun-14 22:30N 35°37' E 139°49'0 0.1
2017-Jun-14 22:00N 35°37' E 139°48'4 7.9
2017-Jun-14 21:30N 35°34' E 139°51'612.6
2017-Jun-14 21:01N 35°28' E 139°50'713.2
2017-Jun-14 20:30N 35°22' E 139°46'611.4
2017-Jun-14 20:00N 35°17' E 139°46'612.4
2017-Jun-14 19:30N 35°10' E 139°46'713.0
2017-Jun-14 18:59N 35°05' E 139°41'239 5.3
2017-Jun-12 22:06N 34°00' E 135°02'212.6
2017-Jun-12 21:58N 34°02' E 135°03'612.7
2017-Jun-12 21:30N 34°08' E 135°04'612.5
2017-Jun-12 21:00N 34°14' E 135°05'2 3.6
2017-Jun-12 20:31N 34°15' E 135°07'0 0.0
2017-Jun-12 20:00N 34°15' E 135°07'0 0.0
2017-Jun-12 19:31N 34°15' E 135°07'0 0.0
2017-Jun-12 19:00N 34°15' E 135°07'0 0.0
2017-Jun-12 18:31N 34°15' E 135°07'0 0.0
2017-Jun-12 18:01N 34°15' E 135°07'0 0.0
2017-Jun-12 17:31N 34°15' E 135°07'  

Dump ship's entire track history